createdAt,value
2022-09-30T00:00:42.083Z,0.00
2022-09-30T00:01:42.198Z,0.00
2022-09-30T00:02:42.116Z,0.00
2022-09-30T00:03:42.071Z,0.00
2022-09-30T00:04:42.076Z,0.00
2022-09-30T00:05:42.061Z,0.00
2022-09-30T00:06:42.069Z,0.00
2022-09-30T00:07:42.064Z,0.00
2022-09-30T00:08:42.057Z,0.00
2022-09-30T00:09:42.106Z,0.00
2022-09-30T00:10:42.064Z,0.00
2022-09-30T00:11:42.059Z,0.00
2022-09-30T00:12:42.045Z,0.00
2022-09-30T00:13:42.043Z,0.00
2022-09-30T00:14:42.038Z,0.00
2022-09-30T00:15:42.030Z,0.00
2022-09-30T00:16:42.088Z,0.00
2022-09-30T00:17:42.040Z,0.00
2022-09-30T00:18:42.031Z,0.00
2022-09-30T00:19:42.025Z,0.00
2022-09-30T00:20:42.008Z,0.00
2022-09-30T00:21:42.013Z,0.00
2022-09-30T00:22:42.020Z,0.00
2022-09-30T00:23:42.004Z,0.00
2022-09-30T00:24:42.004Z,0.00
2022-09-30T00:25:42.000Z,0.00
2022-09-30T00:26:42.019Z,0.00
2022-09-30T00:27:42.003Z,0.00
2022-09-30T00:28:41.999Z,0.00
2022-09-30T00:29:41.985Z,0.00
2022-09-30T00:30:41.978Z,0.00
2022-09-30T00:31:42.038Z,0.00
2022-09-30T00:32:41.979Z,0.00
2022-09-30T00:33:41.985Z,0.00
2022-09-30T00:34:41.968Z,0.00
2022-09-30T00:35:41.967Z,0.00
2022-09-30T00:36:41.967Z,0.00
2022-09-30T00:37:42.021Z,0.00
2022-09-30T00:38:41.958Z,0.00
2022-09-30T00:39:41.946Z,0.00
2022-09-30T00:40:41.941Z,0.00
2022-09-30T00:41:41.940Z,0.00
2022-09-30T00:42:41.976Z,0.00
2022-09-30T00:43:41.949Z,0.00
2022-09-30T00:44:41.936Z,0.00
2022-09-30T00:45:41.931Z,0.00
2022-09-30T00:46:44.838Z,0.00
2022-09-30T00:47:41.935Z,0.00
2022-09-30T00:48:41.930Z,0.00
2022-09-30T00:49:41.914Z,0.00
2022-09-30T00:50:41.918Z,0.00
2022-09-30T00:51:41.913Z,0.00
2022-09-30T00:52:41.912Z,0.00
2022-09-30T00:53:41.923Z,0.00
2022-09-30T00:54:41.904Z,0.00
2022-09-30T00:55:41.904Z,0.00
2022-09-30T00:56:41.896Z,0.00
2022-09-30T00:57:41.999Z,0.00
2022-09-30T00:58:41.908Z,0.00
2022-09-30T00:59:41.885Z,0.00
2022-09-30T01:00:42.004Z,0.00
2022-09-30T01:01:41.950Z,0.00
2022-09-30T01:02:41.876Z,0.00
2022-09-30T01:03:41.889Z,0.00
2022-09-30T01:04:41.867Z,0.00
2022-09-30T01:05:41.872Z,0.00
2022-09-30T01:06:41.868Z,0.00
2022-09-30T01:07:41.860Z,0.00
2022-09-30T01:08:41.847Z,0.00
2022-09-30T01:09:41.901Z,0.00
2022-09-30T01:10:41.839Z,0.00
2022-09-30T01:11:41.845Z,0.00
2022-09-30T01:12:41.843Z,0.00
2022-09-30T01:13:41.851Z,0.00
2022-09-30T01:14:41.847Z,0.00
2022-09-30T01:15:41.830Z,0.00
2022-09-30T01:16:41.842Z,0.00
2022-09-30T01:17:41.832Z,0.00
2022-09-30T01:18:41.813Z,0.00
2022-09-30T01:19:41.809Z,0.00
2022-09-30T01:20:41.815Z,0.00
2022-09-30T01:21:41.811Z,0.00
2022-09-30T01:22:42.497Z,0.00
2022-09-30T01:23:41.806Z,0.00
2022-09-30T01:24:41.792Z,0.00
2022-09-30T01:25:41.803Z,0.00
2022-09-30T01:26:41.803Z,0.00
2022-09-30T01:27:41.786Z,0.00
2022-09-30T01:28:41.783Z,0.00
2022-09-30T01:29:41.778Z,0.00
2022-09-30T01:30:41.791Z,0.00
2022-09-30T01:31:41.823Z,0.00
2022-09-30T01:32:41.787Z,0.00
2022-09-30T01:33:41.784Z,0.00
2022-09-30T01:34:41.767Z,0.00
2022-09-30T01:35:41.774Z,0.00
2022-09-30T01:36:41.773Z,0.00
2022-09-30T01:37:41.764Z,0.00
2022-09-30T01:38:41.748Z,0.00
2022-09-30T01:39:41.749Z,0.00
2022-09-30T01:40:41.739Z,0.00
2022-09-30T01:41:41.739Z,0.00
2022-09-30T01:42:41.746Z,0.00
2022-09-30T01:43:41.728Z,0.00
2022-09-30T01:44:41.737Z,0.00
2022-09-30T01:45:41.735Z,0.00
2022-09-30T01:46:41.850Z,0.00
2022-09-30T01:47:41.731Z,0.00
2022-09-30T01:48:41.727Z,0.00
2022-09-30T01:49:41.718Z,0.00
2022-09-30T01:50:41.710Z,0.00
2022-09-30T01:51:41.705Z,0.00
2022-09-30T01:52:41.704Z,0.00
2022-09-30T01:53:41.701Z,0.00
2022-09-30T01:54:41.700Z,0.00
2022-09-30T01:55:41.698Z,0.00
2022-09-30T01:56:41.693Z,0.00
2022-09-30T01:57:41.690Z,0.00
2022-09-30T01:58:41.684Z,0.00
2022-09-30T01:59:41.681Z,0.00
2022-09-30T02:00:41.764Z,0.00
2022-09-30T02:01:41.714Z,0.00
2022-09-30T02:02:41.695Z,0.00
2022-09-30T02:03:41.662Z,0.00
2022-09-30T02:04:41.659Z,0.00
2022-09-30T02:05:41.665Z,0.00
2022-09-30T02:06:41.660Z,0.00
2022-09-30T02:07:41.656Z,0.00
2022-09-30T02:08:41.645Z,0.00
2022-09-30T02:09:41.719Z,0.00
2022-09-30T02:10:42.148Z,0.00
2022-09-30T02:11:41.687Z,0.00
2022-09-30T02:12:41.691Z,0.00
2022-09-30T02:13:41.644Z,0.00
2022-09-30T02:14:41.629Z,0.00
2022-09-30T02:15:41.626Z,0.00
2022-09-30T02:16:41.617Z,0.00
2022-09-30T02:17:41.621Z,0.00
2022-09-30T02:18:41.626Z,0.00
2022-09-30T02:19:41.612Z,0.00
2022-09-30T02:20:41.610Z,0.00
2022-09-30T02:21:41.608Z,0.00
2022-09-30T02:22:41.602Z,0.00
2022-09-30T02:23:41.601Z,0.00
2022-09-30T02:24:41.590Z,0.00
2022-09-30T02:25:41.595Z,0.00
2022-09-30T02:26:41.582Z,0.00
2022-09-30T02:27:41.583Z,0.00
2022-09-30T02:28:41.578Z,0.00
2022-09-30T02:29:41.577Z,0.00
2022-09-30T02:30:41.582Z,0.00
2022-09-30T02:31:41.667Z,0.00
2022-09-30T02:32:41.575Z,0.00
2022-09-30T02:33:41.580Z,0.00
2022-09-30T02:34:41.599Z,0.00
2022-09-30T02:35:41.558Z,0.00
2022-09-30T02:36:41.557Z,0.00
2022-09-30T02:37:41.549Z,0.00
2022-09-30T02:38:41.549Z,0.00
2022-09-30T02:39:41.553Z,0.00
2022-09-30T02:40:41.540Z,0.00
2022-09-30T02:41:41.540Z,0.00
2022-09-30T02:42:41.539Z,0.00
2022-09-30T02:43:41.531Z,0.00
2022-09-30T02:44:41.528Z,0.00
2022-09-30T02:45:41.519Z,0.00
2022-09-30T02:46:41.612Z,0.00
2022-09-30T02:47:41.517Z,0.00
2022-09-30T02:48:41.504Z,0.00
2022-09-30T02:49:41.513Z,0.00
2022-09-30T02:50:41.542Z,0.00
2022-09-30T02:51:41.523Z,0.00
2022-09-30T02:52:41.506Z,0.00
2022-09-30T02:53:41.497Z,0.00
2022-09-30T02:54:41.485Z,0.00
2022-09-30T02:55:41.491Z,0.00
2022-09-30T02:56:41.483Z,0.00
2022-09-30T02:57:41.482Z,0.00
2022-09-30T02:58:41.472Z,0.00
2022-09-30T02:59:41.577Z,0.00
2022-09-30T03:00:41.532Z,0.00
2022-09-30T03:01:41.500Z,0.00
2022-09-30T03:02:41.469Z,0.00
2022-09-30T03:03:41.469Z,0.00
2022-09-30T03:04:41.458Z,0.00
2022-09-30T03:05:41.459Z,0.00
2022-09-30T03:06:41.465Z,0.00
2022-09-30T03:07:41.456Z,0.00
2022-09-30T03:08:41.441Z,0.00
2022-09-30T03:09:41.519Z,0.00
2022-09-30T03:10:41.442Z,0.00
2022-09-30T03:11:41.437Z,0.00
2022-09-30T03:12:41.432Z,0.00
2022-09-30T03:13:41.421Z,0.00
2022-09-30T03:14:41.434Z,0.00
2022-09-30T03:15:41.433Z,0.00
2022-09-30T03:16:41.486Z,0.00
2022-09-30T03:17:41.415Z,0.00
2022-09-30T03:18:41.406Z,0.00
2022-09-30T03:19:41.415Z,0.00
2022-09-30T03:20:41.408Z,0.00
2022-09-30T03:21:41.393Z,0.00
2022-09-30T03:22:41.413Z,0.00
2022-09-30T03:23:41.392Z,0.00
2022-09-30T03:24:41.387Z,0.00
2022-09-30T03:25:41.383Z,0.00
2022-09-30T03:26:41.373Z,0.00
2022-09-30T03:27:41.375Z,0.00
2022-09-30T03:28:41.381Z,0.00
2022-09-30T03:29:41.373Z,0.00
2022-09-30T03:30:41.381Z,0.00
2022-09-30T03:31:41.431Z,0.00
2022-09-30T03:32:41.354Z,0.00
2022-09-30T03:33:41.351Z,0.00
2022-09-30T03:34:41.352Z,0.00
2022-09-30T03:35:41.345Z,0.00
2022-09-30T03:36:41.347Z,0.00
2022-09-30T03:37:41.342Z,0.00
2022-09-30T03:38:41.370Z,0.00
2022-09-30T03:39:41.331Z,0.00
2022-09-30T03:40:41.357Z,0.00
2022-09-30T03:41:41.325Z,0.00
2022-09-30T03:42:41.322Z,0.00
2022-09-30T03:43:41.318Z,0.00
2022-09-30T03:44:41.313Z,0.00
2022-09-30T03:45:41.308Z,0.00
2022-09-30T03:46:41.348Z,0.00
2022-09-30T03:47:41.306Z,0.00
2022-09-30T03:48:41.300Z,0.00
2022-09-30T03:49:41.299Z,0.00
2022-09-30T03:50:41.303Z,0.00
2022-09-30T03:51:41.297Z,0.00
2022-09-30T03:52:41.291Z,0.00
2022-09-30T03:53:41.286Z,0.00
2022-09-30T03:54:41.303Z,0.00
2022-09-30T03:55:41.283Z,0.00
2022-09-30T03:56:41.274Z,0.00
2022-09-30T03:57:41.275Z,0.00
2022-09-30T03:58:41.271Z,0.00
2022-09-30T03:59:41.274Z,0.00
2022-09-30T04:00:41.295Z,0.00
2022-09-30T04:01:41.324Z,0.00
2022-09-30T04:02:41.252Z,0.00
2022-09-30T04:03:41.259Z,0.00
2022-09-30T04:04:41.248Z,0.00
2022-09-30T04:05:41.243Z,0.00
2022-09-30T04:06:41.236Z,0.00
2022-09-30T04:07:41.242Z,0.00
2022-09-30T04:08:41.246Z,0.00
2022-09-30T04:09:41.317Z,0.00
2022-09-30T04:10:41.242Z,0.00
2022-09-30T04:11:41.224Z,0.00
2022-09-30T04:12:41.213Z,0.00
2022-09-30T04:13:41.224Z,0.00
2022-09-30T04:14:41.217Z,0.00
2022-09-30T04:15:41.213Z,0.00
2022-09-30T04:16:41.250Z,0.00
2022-09-30T04:17:41.213Z,0.00
2022-09-30T04:18:41.207Z,0.00
2022-09-30T04:19:41.202Z,0.00
2022-09-30T04:20:41.185Z,0.00
2022-09-30T04:21:41.188Z,0.00
2022-09-30T04:22:41.176Z,0.00
2022-09-30T04:23:41.188Z,0.00
2022-09-30T04:24:41.180Z,0.00
2022-09-30T04:25:41.183Z,0.00
2022-09-30T04:26:41.185Z,0.00
2022-09-30T04:27:41.170Z,0.00
2022-09-30T04:28:41.184Z,0.00
2022-09-30T04:29:41.160Z,0.00
2022-09-30T04:30:41.153Z,0.00
2022-09-30T04:31:41.219Z,0.00
2022-09-30T04:32:41.143Z,0.00
2022-09-30T04:33:41.141Z,0.00
2022-09-30T04:34:41.150Z,0.00
2022-09-30T04:35:41.141Z,0.00
2022-09-30T04:36:41.132Z,0.00
2022-09-30T04:37:41.129Z,0.00
2022-09-30T04:38:41.130Z,0.00
2022-09-30T04:39:41.117Z,0.00
2022-09-30T04:40:41.120Z,0.00
2022-09-30T04:41:41.120Z,0.00
2022-09-30T04:42:41.151Z,0.00
2022-09-30T04:43:41.108Z,0.00
2022-09-30T04:44:41.107Z,0.00
2022-09-30T04:45:41.134Z,0.00
2022-09-30T04:46:41.099Z,0.00
2022-09-30T04:47:41.089Z,0.00
2022-09-30T04:48:41.101Z,0.00
2022-09-30T04:49:41.084Z,0.00
2022-09-30T04:50:41.085Z,0.00
2022-09-30T04:51:41.089Z,0.00
2022-09-30T04:52:41.096Z,0.00
2022-09-30T04:53:41.082Z,0.00
2022-09-30T04:54:41.068Z,0.00
2022-09-30T04:55:41.075Z,0.00
2022-09-30T04:56:41.070Z,0.00
2022-09-30T04:57:41.057Z,0.00
2022-09-30T04:58:41.075Z,0.00
2022-09-30T04:59:41.056Z,0.00
2022-09-30T05:00:41.077Z,0.00
2022-09-30T05:01:41.077Z,0.00
2022-09-30T05:02:41.040Z,0.00
2022-09-30T05:03:41.034Z,0.00
2022-09-30T05:04:41.042Z,0.00
2022-09-30T05:05:41.033Z,0.00
2022-09-30T05:06:41.027Z,0.00
2022-09-30T05:07:41.023Z,0.00
2022-09-30T05:08:45.431Z,0.00
2022-09-30T05:09:41.092Z,0.00
2022-09-30T05:10:41.012Z,0.00
2022-09-30T05:11:41.012Z,0.00
2022-09-30T05:12:41.017Z,0.00
2022-09-30T05:13:41.001Z,0.00
2022-09-30T05:14:41.022Z,0.00
2022-09-30T05:15:40.999Z,0.00
2022-09-30T05:16:41.086Z,4.00
2022-09-30T05:17:40.988Z,4.00
2022-09-30T05:18:40.990Z,0.00
2022-09-30T05:19:40.982Z,0.00
2022-09-30T05:20:40.974Z,4.00
2022-09-30T05:21:40.978Z,4.00
2022-09-30T05:22:40.971Z,4.00
2022-09-30T05:23:40.970Z,4.00
2022-09-30T05:24:40.959Z,4.00
2022-09-30T05:25:40.964Z,4.00
2022-09-30T05:26:40.956Z,8.00
2022-09-30T05:27:40.963Z,4.00
2022-09-30T05:28:40.958Z,8.00
2022-09-30T05:29:40.941Z,8.00
2022-09-30T05:30:40.963Z,8.00
2022-09-30T05:31:41.004Z,8.00
2022-09-30T05:32:40.939Z,12.00
2022-09-30T05:33:40.926Z,8.00
2022-09-30T05:34:40.930Z,12.00
2022-09-30T05:35:40.925Z,12.00
2022-09-30T05:36:40.924Z,12.00
2022-09-30T05:37:40.927Z,16.00
2022-09-30T05:38:40.928Z,16.00
2022-09-30T05:39:40.905Z,20.00
2022-09-30T05:40:40.911Z,16.00
2022-09-30T05:41:40.904Z,20.00
2022-09-30T05:42:40.895Z,20.00
2022-09-30T05:43:40.890Z,20.00
2022-09-30T05:44:40.896Z,24.00
2022-09-30T05:45:40.884Z,24.00
2022-09-30T05:46:40.982Z,28.00
2022-09-30T05:47:40.906Z,28.00
2022-09-30T05:48:40.880Z,28.00
2022-09-30T05:49:40.872Z,32.00
2022-09-30T05:50:40.884Z,32.00
2022-09-30T05:51:40.878Z,32.00
2022-09-30T05:52:40.867Z,36.00
2022-09-30T05:53:40.856Z,36.00
2022-09-30T05:54:40.852Z,36.00
2022-09-30T05:55:40.848Z,40.00
2022-09-30T05:56:40.859Z,44.00
2022-09-30T05:57:40.842Z,44.00
2022-09-30T05:58:40.835Z,48.00
2022-09-30T05:59:40.851Z,48.00
2022-09-30T06:00:40.852Z,52.00
2022-09-30T06:01:40.863Z,52.00
2022-09-30T06:02:40.991Z,52.00
2022-09-30T06:03:40.820Z,56.00
2022-09-30T06:04:40.815Z,60.00
2022-09-30T06:05:40.822Z,60.00
2022-09-30T06:06:40.823Z,60.00
2022-09-30T06:07:40.808Z,68.00
2022-09-30T06:08:40.810Z,68.00
2022-09-30T06:09:40.932Z,64.00
2022-09-30T06:10:40.819Z,68.00
2022-09-30T06:11:40.790Z,72.00
2022-09-30T06:12:40.802Z,68.00
2022-09-30T06:13:40.791Z,72.00
2022-09-30T06:14:40.787Z,76.00
2022-09-30T06:15:40.790Z,76.00
2022-09-30T06:16:41.005Z,76.00
2022-09-30T06:17:40.778Z,76.00
2022-09-30T06:18:40.796Z,80.00
2022-09-30T06:19:40.782Z,84.00
2022-09-30T06:20:40.784Z,84.00
2022-09-30T06:21:40.755Z,84.00
2022-09-30T06:22:40.766Z,88.00
2022-09-30T06:23:40.756Z,84.00
2022-09-30T06:24:40.745Z,88.00
2022-09-30T06:25:40.748Z,88.00
2022-09-30T06:26:40.736Z,92.00
2022-09-30T06:27:40.740Z,96.00
2022-09-30T06:28:40.742Z,92.00
2022-09-30T06:29:40.737Z,96.00
2022-09-30T06:30:40.726Z,96.00
2022-09-30T06:31:40.770Z,96.00
2022-09-30T06:32:40.715Z,96.00
2022-09-30T06:33:40.729Z,100.00
2022-09-30T06:34:40.789Z,100.00
2022-09-30T06:35:40.718Z,100.00
2022-09-30T06:36:40.701Z,100.00
2022-09-30T06:37:40.700Z,104.00
2022-09-30T06:38:40.725Z,104.00
2022-09-30T06:39:40.713Z,104.00
2022-09-30T06:40:40.690Z,112.00
2022-09-30T06:41:40.689Z,112.00
2022-09-30T06:42:40.690Z,116.00
2022-09-30T06:43:45.518Z,112.00
2022-09-30T06:44:51.064Z,120.00
2022-09-30T06:45:40.745Z,116.00
2022-09-30T06:46:52.723Z,116.00
2022-09-30T06:47:46.763Z,120.00
2022-09-30T06:48:40.752Z,120.00
2022-09-30T06:49:49.274Z,124.00
2022-09-30T06:50:42.265Z,120.00
2022-09-30T06:51:40.658Z,124.00
2022-09-30T06:52:40.649Z,128.00
2022-09-30T06:53:40.639Z,124.00
2022-09-30T06:54:40.645Z,128.00
2022-09-30T06:55:40.648Z,132.00
2022-09-30T06:56:40.640Z,132.00
2022-09-30T06:57:40.642Z,132.00
2022-09-30T06:58:40.632Z,136.00
2022-09-30T06:59:40.637Z,132.00
2022-09-30T07:00:40.837Z,132.00
2022-09-30T07:01:40.612Z,140.00
2022-09-30T07:02:40.715Z,140.00
2022-09-30T07:03:40.611Z,136.00
2022-09-30T07:04:40.618Z,140.00
2022-09-30T07:05:40.597Z,140.00
2022-09-30T07:06:40.632Z,140.00
2022-09-30T07:07:40.608Z,140.00
2022-09-30T07:08:40.596Z,144.00
2022-09-30T07:09:40.618Z,148.00
2022-09-30T07:10:40.582Z,148.00
2022-09-30T07:11:40.581Z,148.00
2022-09-30T07:12:40.576Z,148.00
2022-09-30T07:13:40.577Z,152.00
2022-09-30T07:14:40.576Z,156.00
2022-09-30T07:15:40.589Z,156.00
2022-09-30T07:16:40.619Z,156.00
2022-09-30T07:17:40.570Z,156.00
2022-09-30T07:18:40.559Z,152.00
2022-09-30T07:19:40.552Z,152.00
2022-09-30T07:20:40.555Z,156.00
2022-09-30T07:21:40.571Z,152.00
2022-09-30T07:22:40.566Z,152.00
2022-09-30T07:23:40.543Z,156.00
2022-09-30T07:24:40.531Z,152.00
2022-09-30T07:25:40.531Z,156.00
2022-09-30T07:26:40.535Z,164.00
2022-09-30T07:27:40.532Z,164.00
2022-09-30T07:28:40.526Z,164.00
2022-09-30T07:30:07.276Z,164.00
2022-09-30T07:30:40.515Z,168.00
2022-09-30T07:31:40.551Z,168.00
2022-09-30T07:32:40.515Z,168.00
2022-09-30T07:33:40.526Z,172.00
2022-09-30T07:34:40.505Z,172.00
2022-09-30T07:35:40.504Z,176.00
2022-09-30T07:36:40.490Z,172.00
2022-09-30T07:37:40.487Z,176.00
2022-09-30T07:38:40.511Z,176.00
2022-09-30T07:39:40.490Z,180.00
2022-09-30T07:40:40.478Z,180.00
2022-09-30T07:41:40.497Z,180.00
2022-09-30T07:42:40.489Z,180.00
2022-09-30T07:43:40.465Z,184.00
2022-09-30T07:44:40.471Z,184.00
2022-09-30T07:45:40.487Z,180.00
2022-09-30T07:46:40.645Z,184.00
2022-09-30T07:47:40.460Z,184.00
2022-09-30T07:48:40.458Z,180.00
2022-09-30T07:49:40.448Z,180.00
2022-09-30T07:50:40.466Z,180.00
2022-09-30T07:51:40.450Z,180.00
2022-09-30T07:52:40.464Z,180.00
2022-09-30T07:53:40.442Z,180.00
2022-09-30T07:54:42.604Z,184.00
2022-09-30T07:55:40.445Z,180.00
2022-09-30T07:57:08.196Z,184.00
2022-09-30T07:57:40.439Z,180.00
2022-09-30T07:58:40.426Z,180.00
2022-09-30T07:59:40.423Z,184.00
2022-09-30T08:00:42.918Z,184.00
2022-09-30T08:01:40.516Z,188.00
2022-09-30T08:02:40.448Z,184.00
2022-09-30T08:03:40.415Z,184.00
2022-09-30T08:04:43.717Z,188.00
2022-09-30T08:05:40.415Z,184.00
2022-09-30T08:06:40.417Z,184.00
2022-09-30T08:07:40.417Z,184.00
2022-09-30T08:08:40.405Z,184.00
2022-09-30T08:09:40.497Z,184.00
2022-09-30T08:10:40.421Z,184.00
2022-09-30T08:11:40.399Z,188.00
2022-09-30T08:12:40.396Z,188.00
2022-09-30T08:13:40.397Z,184.00
2022-09-30T08:14:40.391Z,184.00
2022-09-30T08:15:40.377Z,188.00
2022-09-30T08:16:40.462Z,188.00
2022-09-30T08:17:40.368Z,184.00
2022-09-30T08:18:40.381Z,188.00
2022-09-30T08:19:40.365Z,188.00
2022-09-30T08:20:40.363Z,184.00
2022-09-30T08:21:40.366Z,184.00
2022-09-30T08:22:40.361Z,184.00
2022-09-30T08:23:40.362Z,184.00
2022-09-30T08:24:40.361Z,180.00
2022-09-30T08:25:40.350Z,180.00
2022-09-30T08:26:40.368Z,180.00
2022-09-30T08:27:40.346Z,180.00
2022-09-30T08:28:40.363Z,184.00
2022-09-30T08:29:54.603Z,184.00
2022-09-30T08:30:40.337Z,180.00
2022-09-30T08:31:40.421Z,184.00
2022-09-30T08:32:40.331Z,180.00
2022-09-30T08:33:40.337Z,180.00
2022-09-30T08:34:40.337Z,180.00
2022-09-30T08:35:40.327Z,180.00
2022-09-30T08:36:40.327Z,180.00
2022-09-30T08:37:40.330Z,180.00
2022-09-30T08:38:40.325Z,180.00
2022-09-30T08:39:40.327Z,180.00
2022-09-30T08:40:40.317Z,180.00
2022-09-30T08:41:40.305Z,184.00
2022-09-30T08:42:42.810Z,180.00
2022-09-30T08:43:40.308Z,180.00
2022-09-30T08:44:40.303Z,184.00
2022-09-30T08:45:40.389Z,184.00
2022-09-30T08:46:40.304Z,184.00
2022-09-30T08:47:40.294Z,184.00
2022-09-30T08:48:40.302Z,180.00
2022-09-30T08:49:40.288Z,184.00
2022-09-30T08:50:40.305Z,180.00
2022-09-30T08:51:40.297Z,180.00
2022-09-30T08:52:49.320Z,184.00
2022-09-30T08:53:40.275Z,184.00
2022-09-30T08:54:40.359Z,180.00
2022-09-30T08:55:40.277Z,176.00
2022-09-30T08:56:40.270Z,180.00
2022-09-30T08:57:42.853Z,180.00
2022-09-30T08:58:40.294Z,176.00
2022-09-30T08:59:40.265Z,176.00
2022-09-30T09:00:40.300Z,176.00
2022-09-30T09:01:40.254Z,176.00
2022-09-30T09:02:40.351Z,176.00
2022-09-30T09:03:40.255Z,176.00
2022-09-30T09:04:40.349Z,176.00
2022-09-30T09:05:40.250Z,172.00
2022-09-30T09:06:40.250Z,172.00
2022-09-30T09:07:40.244Z,172.00
2022-09-30T09:08:40.241Z,168.00
2022-09-30T09:09:40.236Z,172.00
2022-09-30T09:10:40.230Z,168.00
2022-09-30T09:11:42.792Z,164.00
2022-09-30T09:12:40.227Z,168.00
2022-09-30T09:13:40.226Z,164.00
2022-09-30T09:14:40.249Z,164.00
2022-09-30T09:15:40.230Z,164.00
2022-09-30T09:16:40.281Z,164.00
2022-09-30T09:17:40.225Z,164.00
2022-09-30T09:18:40.213Z,164.00
2022-09-30T09:19:40.215Z,164.00
2022-09-30T09:20:40.202Z,164.00
2022-09-30T09:21:40.199Z,164.00
2022-09-30T09:22:40.202Z,164.00
2022-09-30T09:23:40.190Z,168.00
2022-09-30T09:24:40.192Z,168.00
2022-09-30T09:25:40.192Z,168.00
2022-09-30T09:26:40.183Z,168.00
2022-09-30T09:27:40.196Z,168.00
2022-09-30T09:28:40.178Z,168.00
2022-09-30T09:29:40.180Z,168.00
2022-09-30T09:30:40.196Z,168.00
2022-09-30T09:31:40.215Z,164.00
2022-09-30T09:32:40.163Z,168.00
2022-09-30T09:33:40.165Z,164.00
2022-09-30T09:34:40.306Z,164.00
2022-09-30T09:35:40.165Z,164.00
2022-09-30T09:36:40.173Z,164.00
2022-09-30T09:37:40.159Z,164.00
2022-09-30T09:38:40.147Z,164.00
2022-09-30T09:39:40.155Z,164.00
2022-09-30T09:40:40.141Z,164.00
2022-09-30T09:41:40.153Z,164.00
2022-09-30T09:43:40.142Z,160.00
2022-09-30T09:44:40.130Z,160.00
2022-09-30T09:45:40.164Z,160.00
2022-09-30T09:46:40.153Z,164.00
2022-09-30T09:47:40.132Z,160.00
2022-09-30T09:48:40.130Z,164.00
2022-09-30T09:49:41.744Z,164.00
2022-09-30T09:50:40.115Z,164.00
2022-09-30T09:51:40.116Z,160.00
2022-09-30T09:52:40.118Z,160.00
2022-09-30T09:53:40.121Z,160.00
2022-09-30T09:54:40.112Z,156.00
2022-09-30T09:55:40.436Z,156.00
2022-09-30T09:56:40.105Z,160.00
2022-09-30T09:57:40.100Z,160.00
2022-09-30T09:58:40.168Z,160.00
2022-09-30T09:59:40.109Z,156.00
2022-09-30T10:00:40.103Z,156.00
2022-09-30T10:01:40.187Z,156.00
2022-09-30T10:02:40.190Z,152.00
2022-09-30T10:03:40.082Z,156.00
2022-09-30T10:04:40.073Z,156.00
2022-09-30T10:05:40.161Z,152.00
2022-09-30T10:06:40.089Z,156.00
2022-09-30T10:07:40.087Z,156.00
2022-09-30T10:08:40.075Z,156.00
2022-09-30T10:09:40.062Z,160.00
2022-09-30T10:10:40.065Z,156.00
2022-09-30T10:11:40.065Z,156.00
2022-09-30T10:12:40.062Z,156.00
2022-09-30T10:13:40.061Z,156.00
2022-09-30T10:14:40.050Z,156.00
2022-09-30T10:15:40.087Z,156.00
2022-09-30T10:16:40.048Z,152.00
2022-09-30T10:17:40.123Z,152.00
2022-09-30T10:18:40.052Z,152.00
2022-09-30T10:19:40.051Z,152.00
2022-09-30T10:20:40.063Z,148.00
2022-09-30T10:21:40.052Z,152.00
2022-09-30T10:22:40.036Z,148.00
2022-09-30T10:23:40.040Z,148.00
2022-09-30T10:24:40.033Z,148.00
2022-09-30T10:25:40.023Z,148.00
2022-09-30T10:26:41.741Z,152.00
2022-09-30T10:27:40.020Z,152.00
2022-09-30T10:28:40.025Z,148.00
2022-09-30T10:29:40.011Z,148.00
2022-09-30T10:30:40.016Z,148.00
2022-09-30T10:31:40.113Z,148.00
2022-09-30T10:32:40.014Z,144.00
2022-09-30T10:33:40.000Z,148.00
2022-09-30T10:34:40.038Z,148.00
2022-09-30T10:35:39.993Z,144.00
2022-09-30T10:36:39.991Z,144.00
2022-09-30T10:37:39.995Z,144.00
2022-09-30T10:39:39.982Z,140.00
2022-09-30T10:40:39.997Z,140.00
2022-09-30T10:41:39.982Z,144.00
2022-09-30T10:42:39.991Z,144.00
2022-09-30T10:43:39.981Z,144.00
2022-09-30T10:44:39.977Z,144.00
2022-09-30T10:45:40.040Z,144.00
2022-09-30T10:46:40.034Z,144.00
2022-09-30T10:47:39.967Z,144.00
2022-09-30T10:48:39.966Z,144.00
2022-09-30T10:49:39.978Z,144.00
2022-09-30T10:50:39.994Z,144.00
2022-09-30T10:51:39.951Z,148.00
2022-09-30T10:52:39.951Z,148.00
2022-09-30T10:53:40.003Z,148.00
2022-09-30T10:54:39.953Z,144.00
2022-09-30T10:55:39.948Z,144.00
2022-09-30T10:56:39.942Z,144.00
2022-09-30T10:57:39.939Z,144.00
2022-09-30T10:58:39.989Z,140.00
2022-09-30T10:59:39.940Z,144.00
2022-09-30T11:00:39.924Z,140.00
2022-09-30T11:01:39.981Z,140.00
2022-09-30T11:02:39.932Z,140.00
2022-09-30T11:03:39.946Z,140.00
2022-09-30T11:04:39.937Z,140.00
2022-09-30T11:05:39.913Z,140.00
2022-09-30T11:06:40.047Z,140.00
2022-09-30T11:07:39.912Z,140.00
2022-09-30T11:08:39.901Z,144.00
2022-09-30T11:09:39.901Z,140.00
2022-09-30T11:10:39.893Z,144.00
2022-09-30T11:11:39.902Z,144.00
2022-09-30T11:12:39.894Z,144.00
2022-09-30T11:13:39.903Z,144.00
2022-09-30T11:14:39.906Z,148.00
2022-09-30T11:15:39.896Z,148.00
2022-09-30T11:16:39.957Z,148.00
2022-09-30T11:17:39.883Z,144.00
2022-09-30T11:18:39.884Z,144.00
2022-09-30T11:19:39.871Z,148.00
2022-09-30T11:20:39.975Z,144.00
2022-09-30T11:21:39.935Z,148.00
2022-09-30T11:22:39.887Z,144.00
2022-09-30T11:23:39.866Z,148.00
2022-09-30T11:24:39.870Z,148.00
2022-09-30T11:25:39.862Z,152.00
2022-09-30T11:26:39.859Z,152.00
2022-09-30T11:27:39.952Z,152.00
2022-09-30T11:28:39.854Z,152.00
2022-09-30T11:29:39.847Z,152.00
2022-09-30T11:30:39.853Z,144.00
2022-09-30T11:31:39.927Z,156.00
2022-09-30T11:32:39.843Z,156.00
2022-09-30T11:33:39.843Z,160.00
2022-09-30T11:34:39.844Z,144.00
2022-09-30T11:35:39.841Z,152.00
2022-09-30T11:36:42.856Z,148.00
2022-09-30T11:37:39.824Z,128.00
2022-09-30T11:38:39.838Z,124.00
2022-09-30T11:39:39.817Z,124.00
2022-09-30T11:40:39.907Z,120.00
2022-09-30T11:41:39.824Z,120.00
2022-09-30T11:42:39.819Z,156.00
2022-09-30T11:43:39.808Z,224.00
2022-09-30T11:44:39.817Z,272.00
2022-09-30T11:45:40.014Z,256.00
2022-09-30T11:46:39.811Z,204.00
2022-09-30T11:47:39.820Z,196.00
2022-09-30T11:48:39.806Z,256.00
2022-09-30T11:49:39.791Z,340.00
2022-09-30T11:50:39.788Z,252.00
2022-09-30T11:51:39.795Z,232.00
2022-09-30T11:52:39.799Z,180.00
2022-09-30T11:53:39.787Z,156.00
2022-09-30T11:54:39.804Z,148.00
2022-09-30T11:55:39.779Z,172.00
2022-09-30T11:56:39.791Z,148.00
2022-09-30T11:57:39.779Z,164.00
2022-09-30T11:58:41.842Z,164.00
2022-09-30T11:59:39.771Z,164.00
2022-09-30T12:00:43.137Z,156.00
2022-09-30T12:01:39.841Z,168.00
2022-09-30T12:02:39.817Z,164.00
2022-09-30T12:03:39.838Z,144.00
2022-09-30T12:04:39.758Z,148.00
2022-09-30T12:05:39.747Z,152.00
2022-09-30T12:06:39.749Z,148.00
2022-09-30T12:07:39.746Z,124.00
2022-09-30T12:08:39.758Z,124.00
2022-09-30T12:09:39.743Z,152.00
2022-09-30T12:10:39.841Z,160.00
2022-09-30T12:11:39.742Z,160.00
2022-09-30T12:12:39.739Z,160.00
2022-09-30T12:13:39.753Z,148.00
2022-09-30T12:14:39.738Z,156.00
2022-09-30T12:15:39.742Z,160.00
2022-09-30T12:16:39.802Z,172.00
2022-09-30T12:17:39.724Z,172.00
2022-09-30T12:18:39.729Z,164.00
2022-09-30T12:19:39.727Z,156.00
2022-09-30T12:20:39.722Z,152.00
2022-09-30T12:21:39.714Z,152.00
2022-09-30T12:22:39.709Z,144.00
2022-09-30T12:23:39.716Z,108.00
2022-09-30T12:24:39.719Z,132.00
2022-09-30T12:25:39.709Z,136.00
2022-09-30T12:26:39.732Z,140.00
2022-09-30T12:27:39.692Z,108.00
2022-09-30T12:28:39.691Z,132.00
2022-09-30T12:29:39.692Z,140.00
2022-09-30T12:30:39.714Z,136.00
2022-09-30T12:31:39.771Z,136.00
2022-09-30T12:32:39.679Z,136.00
2022-09-30T12:33:39.691Z,120.00
2022-09-30T12:34:39.677Z,112.00
2022-09-30T12:35:39.672Z,104.00
2022-09-30T12:36:39.675Z,140.00
2022-09-30T12:37:39.683Z,140.00
2022-09-30T12:38:39.671Z,152.00
2022-09-30T12:39:39.661Z,144.00
2022-09-30T12:40:39.682Z,120.00
2022-09-30T12:41:39.685Z,120.00
2022-09-30T12:42:39.668Z,124.00
2022-09-30T12:43:39.657Z,140.00
2022-09-30T12:44:39.647Z,112.00
2022-09-30T12:45:39.695Z,104.00
2022-09-30T12:46:39.647Z,104.00
2022-09-30T12:47:39.636Z,112.00
2022-09-30T12:48:39.642Z,132.00
2022-09-30T12:49:39.643Z,140.00
2022-09-30T12:50:39.647Z,144.00
2022-09-30T12:51:39.626Z,152.00
2022-09-30T12:52:39.656Z,212.00
2022-09-30T12:53:39.631Z,184.00